LGKRLGSA

Guest
Details From LGKR - IOANNIS KAPODISTRIAS INTL
To LGSA - Khania Souda
Flight Number -
Tags generated
Created
Modified
Stats Distance 317 nm / 588 km
Max Altitude 29,500 ft / 8,992 m
Waypoints 6
Social Downloads 0
Likes 0
Share VATSIM

Download

Looking for another format? Having issues loading an existing format? Contact us
Advertisement - Login to hide

Notes

Basic altitude profile: - Ascent Rate: 2500ft/min - Ascent Speed: 250kts - Cruise Altitude: 35000ft - Cruise Speed: 420kts - Descent Rate: 1500ft/min - Descent Speed: 250kts Options: - Use NATs: yes - Use PACOTS: yes - Use low airways: yes - Use high airways: yes

Route

LGKR KRK A14 ARA UL612 TRL UJ65 SOKRI LGSA

ID Type Via Altitude Latitude Longitude Leg Dist Tot Dist Heading (true) Name
O LGKR APT - 0 ft / 0 m 39.60178˚ 19.91191˚ - 0 nm - IOANNIS KAPODISTRIAS INTL
KRK VOR - 4,300 ft / 1,311 m 39.44389˚ 20.07278˚ 12 nm 12 nm 142° / 142° KERKIRA VOR-DME
ARA VOR A14 (AWY-LO) 23,500 ft / 7,163 m 38.10972˚ 21.42528˚ 102 nm 114 nm 141° / 142° ARAXOS VOR-DME
TRL VOR UL612 (AWY-HI) 29,500 ft / 8,992 m 37.40275˚ 22.33963˚ 60 nm 174 nm 134° / 135° TRIPOLIS VOR-DME
SOKRI FIX UJ65 (AWY-HI) 23,500 ft / 7,163 m 36.25778˚ 23.47194˚ 87 nm 262 nm 141° / 142° -
O LGSA APT - 0 ft / 0 m 35.53159˚ 24.15118˚ 54 nm 317 nm 143° / 143° Khania Souda

Altitude Profile

Advertisement - Login to hide

Weather


0- 5 10 15 20 25 30 35+ Temperature / ° C

Clouds and Precipitation
Forecast for 2017-12-12 18:00 UTC. Updated an hour ago

Ground ~20,000 ft ~40,000 ft Winds

LGKR

Details ICAO LGKR (CFU)
Name IOANNIS KAPODISTRIAS INTL
Region Greece
Timezone Europe/Athens (UTC+2.0)
Stats Elevation 6 ft / 2 m (AMSL)
Location 39.601779° 19.911908°
Runways 1
Magnetic Variation 4.097° E

METAR

LGKR 121420Z 16009KT 9999 SCT015 SCT025 BKN070 17/14 Q1021 NOSIG

Decode

TAF

TAF LGKR 121100Z 1212/1312 15015KT 7000 SCT006 BKN025 BKN070 PROB40 TEMPO 1212/1312 4000 RA BR BKN006 OVC025

Decode

Departure Runways

ID Width Length Bearing (true) Bearing (mag) Surface Threshold Offset Overrun Length
17 148 ft / 45 m 7,815 ft / 2,382 m 168.81° 164.71° Asphalt 1,348 ft / 411 m 0 ft / 0 m
35 148 ft / 45 m 7,815 ft / 2,382 m 348.81° 344.71° Asphalt 213 ft / 65 m 0 ft / 0 m

LGSA

Details ICAO LGSA (CHQ)
Name Khania Souda
Region Greece
Timezone Europe/Athens (UTC+2.0)
Stats Elevation 490 ft / 149 m (AMSL)
Location 35.531592° 24.151184°
Runways 1
Magnetic Variation 4.282° E

METAR

LGSA 121420Z 08004KT 9999 FEW070 17/14 Q1022

Decode

TAF

TAF LGSA 121100Z 1212/1312 05006KT 9999 FEW020 BECMG 1304/1306 26015KT SCT025

Decode

Destination Runways

ID Width Length Bearing (true) Bearing (mag) Surface Threshold Offset Overrun Length
11 148 ft / 45 m 10,967 ft / 3,343 m 111.40° 107.12° Asphalt 0 ft / 0 m 735 ft / 224 m
29 148 ft / 45 m 10,967 ft / 3,343 m 291.42° 287.14° Asphalt 0 ft / 0 m 900 ft / 274 m

Popular Alternatives